sensor_id;sensor_type;location;lat;lon;timestamp;P1;durP1;ratioP1;P2;durP2;ratioP2
65717;SDS011;52445;52.466;-1.016;2022-12-07T00:01:18;10.10;;;4.68;;
65717;SDS011;52445;52.466;-1.016;2022-12-07T00:03:54;11.48;;;3.50;;
65717;SDS011;52445;52.466;-1.016;2022-12-07T00:06:26;15.68;;;4.05;;
65717;SDS011;52445;52.466;-1.016;2022-12-07T00:08:53;10.73;;;3.67;;
65717;SDS011;52445;52.466;-1.016;2022-12-07T00:11:21;11.55;;;4.03;;
65717;SDS011;52445;52.466;-1.016;2022-12-07T00:13:52;9.43;;;3.15;;
65717;SDS011;52445;52.466;-1.016;2022-12-07T00:16:21;6.85;;;3.08;;
65717;SDS011;52445;52.466;-1.016;2022-12-07T00:18:48;9.40;;;2.55;;
65717;SDS011;52445;52.466;-1.016;2022-12-07T00:21:16;10.93;;;4.22;;
65717;SDS011;52445;52.466;-1.016;2022-12-07T00:23:45;9.63;;;3.63;;
65717;SDS011;52445;52.466;-1.016;2022-12-07T00:26:16;12.50;;;4.07;;
65717;SDS011;52445;52.466;-1.016;2022-12-07T00:28:46;8.10;;;3.25;;
65717;SDS011;52445;52.466;-1.016;2022-12-07T00:31:14;11.63;;;3.55;;
65717;SDS011;52445;52.466;-1.016;2022-12-07T00:33:42;7.63;;;3.50;;
65717;SDS011;52445;52.466;-1.016;2022-12-07T00:36:10;16.02;;;2.88;;
65717;SDS011;52445;52.466;-1.016;2022-12-07T00:38:39;11.73;;;3.85;;
65717;SDS011;52445;52.466;-1.016;2022-12-07T00:41:07;9.55;;;2.97;;
65717;SDS011;52445;52.466;-1.016;2022-12-07T00:46:03;5.00;;;1.63;;
65717;SDS011;52445;52.466;-1.016;2022-12-07T00:48:30;9.15;;;3.03;;
65717;SDS011;52445;52.466;-1.016;2022-12-07T00:50:57;9.80;;;2.60;;
65717;SDS011;52445;52.466;-1.016;2022-12-07T00:53:24;8.07;;;3.03;;
65717;SDS011;52445;52.466;-1.016;2022-12-07T00:55:51;6.03;;;2.17;;
65717;SDS011;52445;52.466;-1.016;2022-12-07T00:58:19;4.38;;;1.83;;
65717;SDS011;52445;52.466;-1.016;2022-12-07T01:00:45;10.80;;;3.22;;
65717;SDS011;52445;52.466;-1.016;2022-12-07T01:03:13;11.30;;;3.78;;
65717;SDS011;52445;52.466;-1.016;2022-12-07T01:05:51;11.00;;;3.50;;
65717;SDS011;52445;52.466;-1.016;2022-12-07T01:08:20;8.70;;;3.53;;
65717;SDS011;52445;52.466;-1.016;2022-12-07T01:10:47;9.20;;;3.53;;
65717;SDS011;52445;52.466;-1.016;2022-12-07T01:13:14;13.32;;;3.55;;
65717;SDS011;52445;52.466;-1.016;2022-12-07T01:15:42;9.60;;;3.47;;
65717;SDS011;52445;52.466;-1.016;2022-12-07T01:18:10;9.70;;;3.17;;
65717;SDS011;52445;52.466;-1.016;2022-12-07T01:20:37;11.00;;;3.95;;
65717;SDS011;52445;52.466;-1.016;2022-12-07T01:23:04;10.23;;;4.43;;
65717;SDS011;52445;52.466;-1.016;2022-12-07T01:25:30;10.18;;;4.43;;
65717;SDS011;52445;52.466;-1.016;2022-12-07T01:27:57;15.18;;;4.63;;
65717;SDS011;52445;52.466;-1.016;2022-12-07T01:30:24;8.10;;;3.72;;
65717;SDS011;52445;52.466;-1.016;2022-12-07T01:32:50;10.40;;;3.58;;
65717;SDS011;52445;52.466;-1.016;2022-12-07T01:35:17;11.25;;;3.72;;
65717;SDS011;52445;52.466;-1.016;2022-12-07T01:37:44;12.63;;;4.13;;
65717;SDS011;52445;52.466;-1.016;2022-12-07T01:40:11;10.02;;;3.65;;
65717;SDS011;52445;52.466;-1.016;2022-12-07T01:42:37;9.10;;;3.58;;
65717;SDS011;52445;52.466;-1.016;2022-12-07T01:48:08;8.43;;;3.85;;
65717;SDS011;52445;52.466;-1.016;2022-12-07T01:50:37;13.07;;;4.43;;
65717;SDS011;52445;52.466;-1.016;2022-12-07T01:53:06;10.27;;;3.33;;
65717;SDS011;52445;52.466;-1.016;2022-12-07T01:55:34;13.63;;;3.80;;
65717;SDS011;52445;52.466;-1.016;2022-12-07T01:58:04;10.55;;;4.40;;
65717;SDS011;52445;52.466;-1.016;2022-12-07T02:00:31;12.20;;;4.60;;
65717;SDS011;52445;52.466;-1.016;2022-12-07T02:05:48;14.35;;;3.00;;
65717;SDS011;52445;52.466;-1.016;2022-12-07T02:08:16;11.25;;;4.13;;
65717;SDS011;52445;52.466;-1.016;2022-12-07T02:10:44;8.05;;;3.15;;
65717;SDS011;52445;52.466;-1.016;2022-12-07T02:13:13;9.05;;;3.40;;
65717;SDS011;52445;52.466;-1.016;2022-12-07T02:15:48;12.10;;;3.92;;
65717;SDS011;52445;52.466;-1.016;2022-12-07T02:38:10;15.45;;;4.30;;
65717;SDS011;52445;52.466;-1.016;2022-12-07T02:43:56;10.05;;;4.18;;
65717;SDS011;52445;52.466;-1.016;2022-12-07T02:46:27;10.13;;;5.40;;
65717;SDS011;52445;52.466;-1.016;2022-12-07T02:48:57;9.52;;;4.97;;
65717;SDS011;52445;52.466;-1.016;2022-12-07T02:51:25;12.80;;;5.28;;
65717;SDS011;52445;52.466;-1.016;2022-12-07T02:53:56;8.88;;;5.20;;
65717;SDS011;52445;52.466;-1.016;2022-12-07T02:59:02;12.57;;;3.95;;
65717;SDS011;52445;52.466;-1.016;2022-12-07T03:10:48;11.95;;;3.80;;
65717;SDS011;52445;52.466;-1.016;2022-12-07T03:16:26;9.50;;;3.65;;
65717;SDS011;52445;52.466;-1.016;2022-12-07T03:18:58;9.98;;;4.20;;
65717;SDS011;52445;52.466;-1.016;2022-12-07T03:21:32;10.13;;;3.97;;
65717;SDS011;52445;52.466;-1.016;2022-12-07T03:24:04;11.45;;;3.50;;
65717;SDS011;52445;52.466;-1.016;2022-12-07T03:26:38;12.65;;;4.20;;
65717;SDS011;52445;52.466;-1.016;2022-12-07T03:29:14;12.48;;;3.58;;
65717;SDS011;52445;52.466;-1.016;2022-12-07T03:31:47;11.65;;;4.70;;
65717;SDS011;52445;52.466;-1.016;2022-12-07T03:34:24;7.93;;;3.17;;
65717;SDS011;52445;52.466;-1.016;2022-12-07T03:39:34;7.10;;;3.55;;
65717;SDS011;52445;52.466;-1.016;2022-12-07T03:42:06;8.43;;;3.13;;
65717;SDS011;52445;52.466;-1.016;2022-12-07T03:44:35;10.45;;;3.53;;
65717;SDS011;52445;52.466;-1.016;2022-12-07T03:52:23;10.77;;;3.60;;
65717;SDS011;52445;52.466;-1.016;2022-12-07T03:57:34;12.50;;;4.72;;
65717;SDS011;52445;52.466;-1.016;2022-12-07T04:00:03;9.52;;;4.75;;
65717;SDS011;52445;52.466;-1.016;2022-12-07T04:05:00;8.95;;;4.13;;
65717;SDS011;52445;52.466;-1.016;2022-12-07T04:07:27;12.52;;;4.47;;
65717;SDS011;52445;52.466;-1.016;2022-12-07T04:09:54;9.88;;;5.03;;
65717;SDS011;52445;52.466;-1.016;2022-12-07T04:12:21;9.38;;;2.95;;
65717;SDS011;52445;52.466;-1.016;2022-12-07T04:14:48;6.90;;;4.65;;
65717;SDS011;52445;52.466;-1.016;2022-12-07T04:17:15;11.30;;;3.72;;
65717;SDS011;52445;52.466;-1.016;2022-12-07T04:19:41;14.32;;;5.18;;
65717;SDS011;52445;52.466;-1.016;2022-12-07T04:22:08;11.45;;;3.60;;
65717;SDS011;52445;52.466;-1.016;2022-12-07T04:24:35;9.68;;;3.60;;
65717;SDS011;52445;52.466;-1.016;2022-12-07T04:27:01;11.95;;;3.50;;
65717;SDS011;52445;52.466;-1.016;2022-12-07T04:29:28;9.45;;;3.33;;
65717;SDS011;52445;52.466;-1.016;2022-12-07T04:31:55;10.68;;;4.47;;
65717;SDS011;52445;52.466;-1.016;2022-12-07T04:34:21;11.25;;;6.20;;
65717;SDS011;52445;52.466;-1.016;2022-12-07T04:36:48;14.75;;;4.00;;
65717;SDS011;52445;52.466;-1.016;2022-12-07T04:41:55;9.88;;;4.35;;
65717;SDS011;52445;52.466;-1.016;2022-12-07T04:44:22;9.02;;;4.03;;
65717;SDS011;52445;52.466;-1.016;2022-12-07T04:46:50;12.82;;;4.40;;
65717;SDS011;52445;52.466;-1.016;2022-12-07T04:49:17;5.95;;;3.30;;
65717;SDS011;52445;52.466;-1.016;2022-12-07T04:51:45;10.27;;;3.25;;
65717;SDS011;52445;52.466;-1.016;2022-12-07T04:54:13;10.18;;;5.20;;
65717;SDS011;52445;52.466;-1.016;2022-12-07T04:56:41;13.13;;;4.47;;
65717;SDS011;52445;52.466;-1.016;2022-12-07T04:59:09;16.60;;;4.07;;
65717;SDS011;52445;52.466;-1.016;2022-12-07T05:01:36;10.85;;;4.25;;
65717;SDS011;52445;52.466;-1.016;2022-12-07T05:04:04;8.82;;;4.13;;
65717;SDS011;52445;52.466;-1.016;2022-12-07T05:06:30;12.15;;;4.78;;
65717;SDS011;52445;52.466;-1.016;2022-12-07T05:08:57;12.48;;;4.40;;
65717;SDS011;52445;52.466;-1.016;2022-12-07T05:11:23;8.90;;;4.28;;
65717;SDS011;52445;52.466;-1.016;2022-12-07T05:14:10;12.00;;;4.10;;
65717;SDS011;52445;52.466;-1.016;2022-12-07T05:16:40;10.05;;;3.55;;
65717;SDS011;52445;52.466;-1.016;2022-12-07T05:19:08;9.85;;;4.25;;
65717;SDS011;52445;52.466;-1.016;2022-12-07T05:21:36;10.93;;;5.00;;
65717;SDS011;52445;52.466;-1.016;2022-12-07T05:24:02;14.90;;;4.93;;
65717;SDS011;52445;52.466;-1.016;2022-12-07T05:26:30;15.02;;;4.10;;
65717;SDS011;52445;52.466;-1.016;2022-12-07T05:28:57;9.50;;;3.72;;
65717;SDS011;52445;52.466;-1.016;2022-12-07T05:31:24;10.27;;;3.60;;
65717;SDS011;52445;52.466;-1.016;2022-12-07T05:33:52;11.38;;;5.03;;
65717;SDS011;52445;52.466;-1.016;2022-12-07T05:36:19;9.20;;;3.70;;
65717;SDS011;52445;52.466;-1.016;2022-12-07T05:38:46;11.90;;;4.85;;
65717;SDS011;52445;52.466;-1.016;2022-12-07T05:41:14;18.65;;;6.13;;
65717;SDS011;52445;52.466;-1.016;2022-12-07T05:44:03;12.00;;;4.47;;
65717;SDS011;52445;52.466;-1.016;2022-12-07T05:46:30;11.20;;;4.18;;
65717;SDS011;52445;52.466;-1.016;2022-12-07T05:48:57;9.43;;;3.83;;
65717;SDS011;52445;52.466;-1.016;2022-12-07T05:51:24;8.93;;;3.92;;
65717;SDS011;52445;52.466;-1.016;2022-12-07T05:53:50;15.65;;;4.38;;
65717;SDS011;52445;52.466;-1.016;2022-12-07T05:56:17;12.93;;;4.50;;
65717;SDS011;52445;52.466;-1.016;2022-12-07T05:58:44;12.68;;;5.13;;
65717;SDS011;52445;52.466;-1.016;2022-12-07T06:01:30;11.38;;;3.95;;
65717;SDS011;52445;52.466;-1.016;2022-12-07T06:03:57;8.98;;;4.25;;
65717;SDS011;52445;52.466;-1.016;2022-12-07T06:06:23;10.52;;;4.97;;
65717;SDS011;52445;52.466;-1.016;2022-12-07T06:08:50;20.55;;;4.75;;
65717;SDS011;52445;52.466;-1.016;2022-12-07T06:11:17;13.23;;;4.60;;
65717;SDS011;52445;52.466;-1.016;2022-12-07T06:14:03;10.23;;;4.47;;
65717;SDS011;52445;52.466;-1.016;2022-12-07T06:16:30;10.65;;;4.88;;
65717;SDS011;52445;52.466;-1.016;2022-12-07T06:18:57;12.60;;;5.20;;
65717;SDS011;52445;52.466;-1.016;2022-12-07T06:21:23;14.55;;;6.40;;
65717;SDS011;52445;52.466;-1.016;2022-12-07T06:23:52;20.17;;;8.63;;
65717;SDS011;52445;52.466;-1.016;2022-12-07T06:26:19;29.05;;;10.77;;
65717;SDS011;52445;52.466;-1.016;2022-12-07T06:28:46;21.20;;;8.45;;
65717;SDS011;52445;52.466;-1.016;2022-12-07T06:31:12;26.50;;;10.65;;
65717;SDS011;52445;52.466;-1.016;2022-12-07T06:33:39;31.13;;;12.80;;
65717;SDS011;52445;52.466;-1.016;2022-12-07T06:36:07;19.52;;;8.57;;
65717;SDS011;52445;52.466;-1.016;2022-12-07T06:38:34;14.52;;;6.32;;
65717;SDS011;52445;52.466;-1.016;2022-12-07T06:41:01;13.27;;;5.55;;
65717;SDS011;52445;52.466;-1.016;2022-12-07T06:43:27;13.13;;;5.78;;
65717;SDS011;52445;52.466;-1.016;2022-12-07T06:45:54;15.52;;;5.18;;
65717;SDS011;52445;52.466;-1.016;2022-12-07T06:48:21;15.27;;;5.95;;
65717;SDS011;52445;52.466;-1.016;2022-12-07T06:50:48;10.55;;;4.75;;
65717;SDS011;52445;52.466;-1.016;2022-12-07T06:53:20;19.40;;;5.60;;
65717;SDS011;52445;52.466;-1.016;2022-12-07T06:55:46;16.35;;;6.32;;
65717;SDS011;52445;52.466;-1.016;2022-12-07T06:58:13;10.10;;;3.70;;
65717;SDS011;52445;52.466;-1.016;2022-12-07T07:00:40;10.15;;;4.55;;
65717;SDS011;52445;52.466;-1.016;2022-12-07T07:03:06;8.50;;;3.72;;
65717;SDS011;52445;52.466;-1.016;2022-12-07T07:05:33;9.05;;;3.42;;
65717;SDS011;52445;52.466;-1.016;2022-12-07T07:08:00;8.13;;;3.78;;
65717;SDS011;52445;52.466;-1.016;2022-12-07T07:10:47;6.38;;;3.42;;
65717;SDS011;52445;52.466;-1.016;2022-12-07T07:13:14;9.30;;;3.75;;
65717;SDS011;52445;52.466;-1.016;2022-12-07T07:15:41;8.57;;;3.92;;
65717;SDS011;52445;52.466;-1.016;2022-12-07T07:18:08;5.72;;;2.88;;
65717;SDS011;52445;52.466;-1.016;2022-12-07T07:20:35;10.25;;;4.30;;
65717;SDS011;52445;52.466;-1.016;2022-12-07T07:23:01;7.40;;;3.10;;
65717;SDS011;52445;52.466;-1.016;2022-12-07T07:25:28;12.43;;;4.18;;
65717;SDS011;52445;52.466;-1.016;2022-12-07T07:27:55;15.45;;;4.40;;
65717;SDS011;52445;52.466;-1.016;2022-12-07T07:30:21;8.13;;;2.92;;
65717;SDS011;52445;52.466;-1.016;2022-12-07T07:32:48;13.05;;;4.28;;
65717;SDS011;52445;52.466;-1.016;2022-12-07T07:35:15;12.10;;;3.95;;
65717;SDS011;52445;52.466;-1.016;2022-12-07T07:37:42;13.05;;;4.72;;
65717;SDS011;52445;52.466;-1.016;2022-12-07T07:40:09;12.23;;;4.07;;
65717;SDS011;52445;52.466;-1.016;2022-12-07T07:42:36;17.00;;;4.28;;
65717;SDS011;52445;52.466;-1.016;2022-12-07T07:45:03;10.40;;;4.38;;
65717;SDS011;52445;52.466;-1.016;2022-12-07T07:47:30;10.93;;;3.95;;
65717;SDS011;52445;52.466;-1.016;2022-12-07T07:49:57;13.15;;;4.80;;
65717;SDS011;52445;52.466;-1.016;2022-12-07T07:52:24;10.98;;;3.17;;
65717;SDS011;52445;52.466;-1.016;2022-12-07T07:54:50;11.88;;;4.75;;
65717;SDS011;52445;52.466;-1.016;2022-12-07T07:57:17;15.55;;;4.32;;
65717;SDS011;52445;52.466;-1.016;2022-12-07T07:59:44;7.38;;;3.40;;
65717;SDS011;52445;52.466;-1.016;2022-12-07T08:02:18;12.45;;;4.63;;
65717;SDS011;52445;52.466;-1.016;2022-12-07T08:04:46;12.98;;;4.63;;
65717;SDS011;52445;52.466;-1.016;2022-12-07T08:07:13;15.77;;;5.00;;
65717;SDS011;52445;52.466;-1.016;2022-12-07T08:09:40;14.85;;;5.97;;
65717;SDS011;52445;52.466;-1.016;2022-12-07T08:12:07;12.07;;;5.43;;
65717;SDS011;52445;52.466;-1.016;2022-12-07T08:14:34;11.35;;;4.20;;
65717;SDS011;52445;52.466;-1.016;2022-12-07T08:17:01;9.85;;;3.70;;
65717;SDS011;52445;52.466;-1.016;2022-12-07T08:19:28;19.48;;;5.05;;
65717;SDS011;52445;52.466;-1.016;2022-12-07T08:21:55;18.85;;;4.47;;
65717;SDS011;52445;52.466;-1.016;2022-12-07T08:24:22;10.18;;;4.72;;
65717;SDS011;52445;52.466;-1.016;2022-12-07T08:26:49;10.82;;;4.28;;
65717;SDS011;52445;52.466;-1.016;2022-12-07T08:29:16;9.27;;;3.72;;
65717;SDS011;52445;52.466;-1.016;2022-12-07T08:31:43;14.15;;;5.13;;
65717;SDS011;52445;52.466;-1.016;2022-12-07T08:34:11;10.90;;;4.18;;
65717;SDS011;52445;52.466;-1.016;2022-12-07T08:36:37;10.27;;;3.92;;
65717;SDS011;52445;52.466;-1.016;2022-12-07T08:39:04;12.13;;;4.95;;
65717;SDS011;52445;52.466;-1.016;2022-12-07T08:41:51;14.30;;;4.32;;
65717;SDS011;52445;52.466;-1.016;2022-12-07T08:44:17;13.80;;;5.50;;
65717;SDS011;52445;52.466;-1.016;2022-12-07T08:46:46;51.53;;;14.63;;
65717;SDS011;52445;52.466;-1.016;2022-12-07T08:49:20;13.68;;;6.32;;
65717;SDS011;52445;52.466;-1.016;2022-12-07T08:51:51;16.50;;;5.68;;
65717;SDS011;52445;52.466;-1.016;2022-12-07T08:54:17;18.00;;;5.35;;
65717;SDS011;52445;52.466;-1.016;2022-12-07T08:56:45;16.35;;;5.90;;
65717;SDS011;52445;52.466;-1.016;2022-12-07T08:59:17;14.45;;;5.63;;
65717;SDS011;52445;52.466;-1.016;2022-12-07T09:01:45;16.77;;;5.97;;
65717;SDS011;52445;52.466;-1.016;2022-12-07T09:04:12;11.55;;;5.35;;
65717;SDS011;52445;52.466;-1.016;2022-12-07T09:06:38;12.88;;;5.07;;
65717;SDS011;52445;52.466;-1.016;2022-12-07T09:09:05;18.42;;;6.20;;
65717;SDS011;52445;52.466;-1.016;2022-12-07T09:11:32;16.98;;;6.10;;
65717;SDS011;52445;52.466;-1.016;2022-12-07T09:13:59;14.27;;;5.75;;
65717;SDS011;52445;52.466;-1.016;2022-12-07T09:16:25;16.00;;;6.22;;
65717;SDS011;52445;52.466;-1.016;2022-12-07T09:18:52;16.40;;;6.55;;
65717;SDS011;52445;52.466;-1.016;2022-12-07T09:21:19;15.95;;;7.13;;
65717;SDS011;52445;52.466;-1.016;2022-12-07T09:23:45;18.88;;;7.45;;
65717;SDS011;52445;52.466;-1.016;2022-12-07T09:26:12;17.77;;;6.72;;
65717;SDS011;52445;52.466;-1.016;2022-12-07T09:28:38;21.40;;;8.95;;
65717;SDS011;52445;52.466;-1.016;2022-12-07T09:31:05;19.15;;;7.65;;
65717;SDS011;52445;52.466;-1.016;2022-12-07T09:33:58;19.73;;;7.95;;
65717;SDS011;52445;52.466;-1.016;2022-12-07T09:36:27;19.95;;;8.15;;
65717;SDS011;52445;52.466;-1.016;2022-12-07T09:38:54;15.05;;;5.70;;
65717;SDS011;52445;52.466;-1.016;2022-12-07T09:41:21;14.02;;;6.90;;
65717;SDS011;52445;52.466;-1.016;2022-12-07T09:43:50;12.18;;;4.97;;
65717;SDS011;52445;52.466;-1.016;2022-12-07T09:46:17;12.32;;;4.70;;
65717;SDS011;52445;52.466;-1.016;2022-12-07T09:48:47;12.88;;;5.22;;
65717;SDS011;52445;52.466;-1.016;2022-12-07T09:51:17;9.98;;;4.03;;
65717;SDS011;52445;52.466;-1.016;2022-12-07T09:53:50;10.07;;;4.57;;
65717;SDS011;52445;52.466;-1.016;2022-12-07T09:56:18;12.68;;;4.72;;
65717;SDS011;52445;52.466;-1.016;2022-12-07T09:58:46;7.53;;;2.97;;
65717;SDS011;52445;52.466;-1.016;2022-12-07T10:01:14;11.77;;;4.15;;
65717;SDS011;52445;52.466;-1.016;2022-12-07T10:03:48;17.65;;;7.10;;
65717;SDS011;52445;52.466;-1.016;2022-12-07T10:06:19;13.65;;;5.90;;
65717;SDS011;52445;52.466;-1.016;2022-12-07T10:08:46;11.38;;;5.07;;
65717;SDS011;52445;52.466;-1.016;2022-12-07T10:11:13;19.90;;;7.25;;
65717;SDS011;52445;52.466;-1.016;2022-12-07T10:13:44;20.42;;;8.05;;
65717;SDS011;52445;52.466;-1.016;2022-12-07T10:19:17;18.52;;;8.02;;
65717;SDS011;52445;52.466;-1.016;2022-12-07T10:24:41;17.20;;;5.65;;
65717;SDS011;52445;52.466;-1.016;2022-12-07T10:27:19;9.77;;;4.45;;
65717;SDS011;52445;52.466;-1.016;2022-12-07T10:29:52;14.30;;;5.25;;
65717;SDS011;52445;52.466;-1.016;2022-12-07T10:35:15;11.50;;;5.43;;
65717;SDS011;52445;52.466;-1.016;2022-12-07T10:37:58;12.55;;;5.13;;
65717;SDS011;52445;52.466;-1.016;2022-12-07T10:40:34;11.70;;;5.03;;
65717;SDS011;52445;52.466;-1.016;2022-12-07T10:43:07;10.00;;;4.93;;
65717;SDS011;52445;52.466;-1.016;2022-12-07T10:45:55;12.95;;;7.03;;
65717;SDS011;52445;52.466;-1.016;2022-12-07T10:48:43;9.90;;;5.00;;
65717;SDS011;52445;52.466;-1.016;2022-12-07T10:51:27;10.30;;;4.53;;
65717;SDS011;52445;52.466;-1.016;2022-12-07T11:08:38;9.48;;;4.18;;
65717;SDS011;52445;52.466;-1.016;2022-12-07T11:11:30;7.63;;;4.55;;
65717;SDS011;52445;52.466;-1.016;2022-12-07T11:14:14;9.23;;;5.30;;
65717;SDS011;52445;52.466;-1.016;2022-12-07T11:22:28;7.07;;;2.85;;
65717;SDS011;52445;52.466;-1.016;2022-12-07T11:39:14;13.45;;;4.80;;
65717;SDS011;52445;52.466;-1.016;2022-12-07T11:41:55;12.15;;;4.53;;
65717;SDS011;52445;52.466;-1.016;2022-12-07T11:47:09;8.45;;;4.57;;
65717;SDS011;52445;52.466;-1.016;2022-12-07T11:49:44;6.93;;;2.38;;
65717;SDS011;52445;52.466;-1.016;2022-12-07T11:52:22;8.10;;;3.03;;
65717;SDS011;52445;52.466;-1.016;2022-12-07T11:54:57;7.50;;;3.80;;
65717;SDS011;52445;52.466;-1.016;2022-12-07T11:57:28;8.80;;;3.63;;
65717;SDS011;52445;52.466;-1.016;2022-12-07T12:00:03;8.82;;;4.22;;
65717;SDS011;52445;52.466;-1.016;2022-12-07T12:02:36;11.48;;;3.05;;
65717;SDS011;52445;52.466;-1.016;2022-12-07T12:05:24;8.57;;;4.70;;
65717;SDS011;52445;52.466;-1.016;2022-12-07T12:08:00;8.75;;;4.07;;
65717;SDS011;52445;52.466;-1.016;2022-12-07T12:11:06;8.52;;;3.75;;
65717;SDS011;52445;52.466;-1.016;2022-12-07T12:17:07;29.55;;;10.65;;
65717;SDS011;52445;52.466;-1.016;2022-12-07T12:22:37;18.88;;;6.68;;
65717;SDS011;52445;52.466;-1.016;2022-12-07T12:27:58;20.80;;;8.25;;
65717;SDS011;52445;52.466;-1.016;2022-12-07T12:33:02;20.10;;;9.80;;
65717;SDS011;52445;52.466;-1.016;2022-12-07T12:47:37;11.27;;;5.57;;
65717;SDS011;52445;52.466;-1.016;2022-12-07T12:50:12;8.88;;;5.30;;
65717;SDS011;52445;52.466;-1.016;2022-12-07T12:55:20;9.93;;;5.15;;
65717;SDS011;52445;52.466;-1.016;2022-12-07T12:58:21;8.32;;;3.28;;
65717;SDS011;52445;52.466;-1.016;2022-12-07T13:04:14;9.32;;;5.15;;
65717;SDS011;52445;52.466;-1.016;2022-12-07T13:06:47;14.57;;;5.15;;
65717;SDS011;52445;52.466;-1.016;2022-12-07T13:09:19;8.27;;;5.85;;
65717;SDS011;52445;52.466;-1.016;2022-12-07T13:11:49;14.50;;;5.38;;
65717;SDS011;52445;52.466;-1.016;2022-12-07T13:20:39;6.45;;;3.00;;
65717;SDS011;52445;52.466;-1.016;2022-12-07T13:23:06;7.53;;;3.00;;
65717;SDS011;52445;52.466;-1.016;2022-12-07T13:25:36;9.27;;;3.55;;
65717;SDS011;52445;52.466;-1.016;2022-12-07T13:28:14;7.03;;;3.55;;
65717;SDS011;52445;52.466;-1.016;2022-12-07T13:30:45;11.82;;;3.00;;
65717;SDS011;52445;52.466;-1.016;2022-12-07T13:33:23;5.50;;;2.60;;
65717;SDS011;52445;52.466;-1.016;2022-12-07T13:35:53;7.35;;;2.75;;
65717;SDS011;52445;52.466;-1.016;2022-12-07T13:38:36;4.93;;;2.65;;
65717;SDS011;52445;52.466;-1.016;2022-12-07T13:41:19;7.93;;;2.30;;
65717;SDS011;52445;52.466;-1.016;2022-12-07T13:43:50;8.10;;;3.50;;
65717;SDS011;52445;52.466;-1.016;2022-12-07T13:46:24;6.05;;;3.00;;
65717;SDS011;52445;52.466;-1.016;2022-12-07T13:48:57;4.60;;;2.38;;
65717;SDS011;52445;52.466;-1.016;2022-12-07T13:51:25;10.38;;;2.65;;
65717;SDS011;52445;52.466;-1.016;2022-12-07T13:53:54;6.38;;;2.85;;
65717;SDS011;52445;52.466;-1.016;2022-12-07T13:56:26;11.05;;;3.83;;
65717;SDS011;52445;52.466;-1.016;2022-12-07T13:58:59;7.05;;;3.17;;
65717;SDS011;52445;52.466;-1.016;2022-12-07T14:01:26;8.90;;;3.42;;
65717;SDS011;52445;52.466;-1.016;2022-12-07T14:03:54;6.55;;;2.55;;
65717;SDS011;52445;52.466;-1.016;2022-12-07T14:06:25;9.13;;;2.95;;
65717;SDS011;52445;52.466;-1.016;2022-12-07T14:09:14;8.82;;;2.80;;
65717;SDS011;52445;52.466;-1.016;2022-12-07T14:11:44;6.00;;;2.15;;
65717;SDS011;52445;52.466;-1.016;2022-12-07T14:14:14;2.00;;;1.10;;
65717;SDS011;52445;52.466;-1.016;2022-12-07T14:16:54;4.63;;;1.77;;
65717;SDS011;52445;52.466;-1.016;2022-12-07T14:22:23;6.72;;;2.08;;
65717;SDS011;52445;52.466;-1.016;2022-12-07T14:27:35;8.60;;;1.88;;
65717;SDS011;52445;52.466;-1.016;2022-12-07T14:30:03;10.07;;;2.60;;
65717;SDS011;52445;52.466;-1.016;2022-12-07T14:32:31;8.25;;;2.90;;
65717;SDS011;52445;52.466;-1.016;2022-12-07T14:35:07;9.93;;;2.72;;
65717;SDS011;52445;52.466;-1.016;2022-12-07T14:37:44;5.75;;;2.15;;
65717;SDS011;52445;52.466;-1.016;2022-12-07T14:40:18;20.38;;;6.45;;
65717;SDS011;52445;52.466;-1.016;2022-12-07T14:42:51;14.70;;;3.85;;
65717;SDS011;52445;52.466;-1.016;2022-12-07T14:45:22;9.48;;;3.03;;
65717;SDS011;52445;52.466;-1.016;2022-12-07T14:47:49;12.55;;;4.90;;
65717;SDS011;52445;52.466;-1.016;2022-12-07T14:50:37;5.10;;;2.53;;
65717;SDS011;52445;52.466;-1.016;2022-12-07T14:53:28;9.30;;;4.05;;
65717;SDS011;52445;52.466;-1.016;2022-12-07T14:55:59;9.82;;;3.40;;
65717;SDS011;52445;52.466;-1.016;2022-12-07T14:58:26;4.90;;;2.63;;
65717;SDS011;52445;52.466;-1.016;2022-12-07T15:00:53;6.40;;;3.40;;
65717;SDS011;52445;52.466;-1.016;2022-12-07T15:03:19;5.70;;;2.55;;
65717;SDS011;52445;52.466;-1.016;2022-12-07T15:05:46;10.95;;;4.50;;
65717;SDS011;52445;52.466;-1.016;2022-12-07T15:08:13;7.43;;;3.13;;
65717;SDS011;52445;52.466;-1.016;2022-12-07T15:10:39;5.82;;;2.55;;
65717;SDS011;52445;52.466;-1.016;2022-12-07T15:13:06;9.18;;;3.47;;
65717;SDS011;52445;52.466;-1.016;2022-12-07T15:15:54;9.85;;;5.30;;
65717;SDS011;52445;52.466;-1.016;2022-12-07T15:18:21;9.60;;;4.35;;
65717;SDS011;52445;52.466;-1.016;2022-12-07T15:20:49;11.80;;;5.13;;
65717;SDS011;52445;52.466;-1.016;2022-12-07T15:23:16;9.82;;;4.05;;
65717;SDS011;52445;52.466;-1.016;2022-12-07T15:25:44;7.45;;;2.35;;
65717;SDS011;52445;52.466;-1.016;2022-12-07T15:28:13;9.35;;;3.03;;
65717;SDS011;52445;52.466;-1.016;2022-12-07T15:30:40;7.75;;;2.88;;
65717;SDS011;52445;52.466;-1.016;2022-12-07T15:33:09;10.55;;;2.58;;
65717;SDS011;52445;52.466;-1.016;2022-12-07T15:35:39;7.70;;;3.20;;
65717;SDS011;52445;52.466;-1.016;2022-12-07T15:38:07;11.98;;;4.32;;
65717;SDS011;52445;52.466;-1.016;2022-12-07T15:40:34;7.45;;;3.72;;
65717;SDS011;52445;52.466;-1.016;2022-12-07T15:43:01;7.55;;;2.67;;
65717;SDS011;52445;52.466;-1.016;2022-12-07T15:45:28;6.28;;;2.80;;
65717;SDS011;52445;52.466;-1.016;2022-12-07T15:47:55;11.48;;;3.42;;
65717;SDS011;52445;52.466;-1.016;2022-12-07T15:50:41;6.43;;;3.08;;
65717;SDS011;52445;52.466;-1.016;2022-12-07T15:53:08;7.82;;;4.72;;
65717;SDS011;52445;52.466;-1.016;2022-12-07T15:55:34;12.68;;;4.68;;
65717;SDS011;52445;52.466;-1.016;2022-12-07T15:58:01;6.38;;;2.17;;
65717;SDS011;52445;52.466;-1.016;2022-12-07T16:00:27;8.27;;;2.72;;
65717;SDS011;52445;52.466;-1.016;2022-12-07T16:02:54;6.20;;;2.10;;
65717;SDS011;52445;52.466;-1.016;2022-12-07T16:05:21;4.72;;;2.05;;
65717;SDS011;52445;52.466;-1.016;2022-12-07T16:07:47;4.72;;;2.05;;
65717;SDS011;52445;52.466;-1.016;2022-12-07T16:10:14;10.70;;;3.55;;
65717;SDS011;52445;52.466;-1.016;2022-12-07T16:12:41;5.10;;;3.13;;
65717;SDS011;52445;52.466;-1.016;2022-12-07T16:15:08;4.50;;;2.38;;
65717;SDS011;52445;52.466;-1.016;2022-12-07T16:17:34;5.45;;;3.03;;
65717;SDS011;52445;52.466;-1.016;2022-12-07T16:20:01;5.70;;;3.63;;
65717;SDS011;52445;52.466;-1.016;2022-12-07T16:22:29;6.45;;;1.55;;
65717;SDS011;52445;52.466;-1.016;2022-12-07T16:24:56;4.25;;;1.65;;
65717;SDS011;52445;52.466;-1.016;2022-12-07T16:27:23;4.28;;;1.75;;
65717;SDS011;52445;52.466;-1.016;2022-12-07T16:29:49;6.43;;;3.88;;
65717;SDS011;52445;52.466;-1.016;2022-12-07T16:32:16;5.47;;;1.85;;
65717;SDS011;52445;52.466;-1.016;2022-12-07T16:34:42;4.45;;;2.08;;
65717;SDS011;52445;52.466;-1.016;2022-12-07T16:37:09;4.60;;;1.77;;
65717;SDS011;52445;52.466;-1.016;2022-12-07T16:39:36;7.55;;;3.08;;
65717;SDS011;52445;52.466;-1.016;2022-12-07T16:42:02;5.15;;;3.65;;
65717;SDS011;52445;52.466;-1.016;2022-12-07T16:44:29;6.50;;;4.13;;
65717;SDS011;52445;52.466;-1.016;2022-12-07T16:46:57;7.75;;;4.13;;
65717;SDS011;52445;52.466;-1.016;2022-12-07T16:49:24;2.15;;;2.03;;
65717;SDS011;52445;52.466;-1.016;2022-12-07T16:51:51;3.97;;;3.17;;
65717;SDS011;52445;52.466;-1.016;2022-12-07T16:54:37;5.97;;;2.25;;
65717;SDS011;52445;52.466;-1.016;2022-12-07T16:57:04;4.28;;;3.35;;
65717;SDS011;52445;52.466;-1.016;2022-12-07T16:59:31;5.68;;;3.33;;
65717;SDS011;52445;52.466;-1.016;2022-12-07T17:01:57;8.15;;;3.90;;
65717;SDS011;52445;52.466;-1.016;2022-12-07T17:04:24;13.05;;;5.57;;
65717;SDS011;52445;52.466;-1.016;2022-12-07T17:06:51;13.27;;;4.68;;
65717;SDS011;52445;52.466;-1.016;2022-12-07T17:09:17;8.52;;;3.80;;
65717;SDS011;52445;52.466;-1.016;2022-12-07T17:11:47;8.98;;;4.10;;